Hamilton, Ontario

3:58 AM EDT on September 20, 2014 (GMT -0400)
APRSWXNET Stoney Creek CA | Change Station
CLOSE
Current Station
Personal Weather Station
Location: Hamilton Airport, ON
Elevation: 659 ft
Nearby Weather Stations

Elev 659 ft 43.19 °N, 79.79 °W | Updated 52 days ago

Partly Cloudy
Partly Cloudy
66 °F
Feels Like 66 °F
N
14
Wind Variable Wind from SSW
Gusts mph

Today
High -- | Low -- °F
--% Chance of Precip.
Yesterday
High -- | Low -- °F
Precip. -- in
7:04 AM 7:20 PM
Waning Crescent, 14% visible
Pressure 30.06 in
Visibility 15.0 miles
Clouds Scattered Clouds 22000 ft
Dew Point 56 °F
Humidity 69%
Rainfall 0.00 in
Snow Depth Not available.
UV 0 out of 12
Pollen Not available.
Air Quality Not available.
Flu Activity Not available.
METAR CYHM 200700Z 22004KT 15SM SCT220 08/08 A3005 RMK CI4 SLP177

More Conditions Fewer Conditions

Pressure 30.06 in
Visibility 15.0 miles
Clouds Scattered Clouds 22000 ft
Dew Point 56 °F
Humidity 69%
Rainfall 0.00 in
Snow Depth Not available.
UV 0 out of 12
Pollen Not available.
Air Quality Not available.
Flu Activity Not available.
METAR CYHM 200700Z 22004KT 15SM SCT220 08/08 A3005 RMK CI4 SLP177

More Conditions Fewer Conditions

10-Day Weather Forecast

Almanac

Astronomy

Sep. 20, 2014 Rise Set
Actual Time 7:04 AM EDT 7:20 PM EDT
Civil Twilight 6:35 AM EDT 7:48 PM EDT
Nautical Twilight 6:02 AM EDT 8:21 PM EDT
Astronomical Twilight 5:27 AM EDT 8:56 PM EDT
Moon 3:37 AM EDT 5:26 PM EDT
Length of Visible Light 13h 12m
Length of Day
12h 15m
Tomorrow will be 2m 55s shorter.
Waning Crescent, 14% of the Moon is Illuminated
Today
Waning Crescent
Sep 24
New
Oct 1
First Quarter
Oct 8
Full
Oct 15
Last Quarter

Yesterday's Extremes

Country Highs Country Lows

Community

WunderPhotos

Upload Photos

1,754,793 photos uploaded!

WunderBlogs® & News

Nearby

Snow Depth

Not available.

Earthquake Activity

City Distance Mag. Time & Date
No recent earthquake activity has been reported nearby.
Minimum magnitude displayed is 2.5.

Coastal Water Temperatures

Place Temperature
No Stations Reporting

Nearby Weather Stations